Time;durP1;ratioP1;P1;durP2;ratioP2;P2;SDS_P1;SDS_P2;PMS_P1;PMS_P2;Temp;Humidity;BMP_temperature;BMP_pressure;BME280_temperature;BME280_humidity;BME280_pressure;Samples;Min_cycle;Max_cycle;Signal;HPM_P1;HPM_P2
2023/07/23 00:00:06;;;;;;;6.70;3.60;;;17.10;99.90;;;;;;4215968;28;20273;-72
2023/07/23 00:02:08;;;;;;;5.50;3.37;;;17.10;99.90;;;;;;4214475;28;20199;-73
2023/07/23 00:04:10;;;;;;;7.13;4.00;;;17.10;99.90;;;;;;4213903;28;20206;-72
2023/07/23 00:06:12;;;;;;;8.83;4.00;;;17.10;99.90;;;;;;4214307;28;20316;-74
2023/07/23 00:08:14;;;;;;;5.67;3.70;;;17.00;99.90;;;;;;4216476;28;20257;-72
2023/07/23 00:10:16;;;;;;;6.27;4.03;;;17.00;99.90;;;;;;4215582;28;20210;-72
2023/07/23 00:12:18;;;;;;;7.23;3.47;;;17.00;99.90;;;;;;4211424;28;20707;-74
2023/07/23 00:14:20;;;;;;;6.57;3.40;;;17.00;99.90;;;;;;4217165;28;20718;-72
2023/07/23 00:16:21;;;;;;;6.27;3.47;;;17.00;99.90;;;;;;4214804;28;20233;-73
2023/07/23 00:18:24;;;;;;;8.13;3.30;;;16.90;99.90;;;;;;4215573;28;20617;-72
2023/07/23 00:20:26;;;;;;;8.60;3.97;;;17.00;99.90;;;;;;4216197;28;20213;-73
2023/07/23 00:22:28;;;;;;;7.67;3.63;;;17.00;99.90;;;;;;4214994;28;20230;-74
2023/07/23 00:24:30;;;;;;;5.17;3.13;;;17.00;99.90;;;;;;4215462;28;20292;-72
2023/07/23 00:26:32;;;;;;;7.23;3.43;;;17.00;99.90;;;;;;4212972;28;20662;-72
2023/07/23 00:28:34;;;;;;;6.87;3.63;;;17.00;99.90;;;;;;4217306;28;20862;-72
2023/07/23 00:30:35;;;;;;;7.50;3.47;;;17.00;99.90;;;;;;4213391;28;20304;-72
2023/07/23 00:32:37;;;;;;;7.73;3.40;;;17.00;99.90;;;;;;4214034;28;20233;-72
2023/07/23 00:34:41;;;;;;;6.77;3.33;;;16.90;99.90;;;;;;4216085;28;20218;-72
2023/07/23 00:36:43;;;;;;;5.53;3.20;;;17.00;99.90;;;;;;4214620;28;20283;-73
2023/07/23 00:38:45;;;;;;;6.47;3.00;;;17.00;99.90;;;;;;4212926;28;20638;-72
2023/07/23 00:40:47;;;;;;;6.13;3.43;;;17.00;99.90;;;;;;4215044;28;20219;-72
2023/07/23 00:42:49;;;;;;;6.10;3.40;;;17.00;99.90;;;;;;4210878;28;20210;-76
2023/07/23 00:44:51;;;;;;;4.10;2.87;;;17.00;99.90;;;;;;4216900;28;20743;-74
2023/07/23 00:46:53;;;;;;;5.40;3.73;;;17.00;99.90;;;;;;4214286;28;20618;-72
2023/07/23 00:48:55;;;;;;;6.00;3.73;;;17.00;99.90;;;;;;4210522;28;20284;-72
2023/07/23 00:50:58;;;;;;;4.63;3.13;;;17.00;99.90;;;;;;4220903;28;20267;-73
2023/07/23 00:53:01;;;;;;;6.53;3.80;;;17.00;99.90;;;;;;4218089;28;20242;-72
2023/07/23 00:55:04;;;;;;;5.47;3.53;;;17.10;99.90;;;;;;4213816;28;20233;-72
2023/07/23 00:57:09;;;;;;;4.90;3.40;;;17.00;99.90;;;;;;4208205;28;20233;-72
2023/07/23 00:59:11;;;;;;;5.33;3.40;;;17.10;99.90;;;;;;4212930;28;20213;-73
2023/07/23 01:01:13;;;;;;;6.87;3.50;;;17.00;99.90;;;;;;4211321;28;20805;-72
2023/07/23 01:03:15;;;;;;;4.90;3.30;;;17.10;99.90;;;;;;4219708;28;21176;-73
2023/07/23 01:05:17;;;;;;;4.93;3.10;;;17.10;99.90;;;;;;4212034;28;20219;-73
2023/07/23 01:07:22;;;;;;;5.30;3.50;;;17.10;99.90;;;;;;4213035;28;20719;-73
2023/07/23 01:09:24;;;;;;;6.77;3.33;;;17.10;99.90;;;;;;4213464;28;20293;-74
2023/07/23 01:11:28;;;;;;;6.53;3.57;;;17.00;99.90;;;;;;4214688;28;20732;-75
2023/07/23 01:13:30;;;;;;;5.17;3.30;;;17.10;99.90;;;;;;4213018;28;20233;-73
2023/07/23 01:15:32;;;;;;;4.63;3.30;;;17.10;99.90;;;;;;4236990;22;20579;-75
2023/07/23 01:17:36;;;;;;;8.07;3.50;;;17.10;99.90;;;;;;4204884;28;20226;-77
2023/07/23 01:19:38;;;;;;;5.43;3.30;;;17.10;99.90;;;;;;4203868;28;20217;-76
2023/07/23 01:21:39;;;;;;;4.80;3.10;;;17.10;99.90;;;;;;4206908;28;21179;-76
2023/07/23 01:23:42;;;;;;;5.20;3.33;;;17.10;99.90;;;;;;4208219;28;20198;-77
2023/07/23 01:25:44;;;;;;;4.73;3.13;;;17.10;99.90;;;;;;4204524;28;20221;-76
2023/07/23 01:27:46;;;;;;;4.63;3.03;;;17.20;99.90;;;;;;4206756;28;20660;-77
2023/07/23 01:29:48;;;;;;;5.90;3.37;;;17.20;99.90;;;;;;4206590;28;20272;-76
2023/07/23 01:31:50;;;;;;;5.43;3.40;;;17.20;99.90;;;;;;4209538;28;20199;-77
2023/07/23 01:33:53;;;;;;;4.97;3.30;;;17.20;99.90;;;;;;4205864;28;20317;-77
2023/07/23 01:35:59;;;;;;;5.33;3.40;;;17.10;99.90;;;;;;4204073;28;20246;-76
2023/07/23 01:38:02;;;;;;;5.70;3.10;;;17.20;99.90;;;;;;4209367;28;20216;-76
2023/07/23 01:40:07;;;;;;;6.60;3.00;;;17.20;99.90;;;;;;4208254;28;20221;-76
2023/07/23 01:42:11;;;;;;;5.00;3.00;;;17.20;99.90;;;;;;4201811;28;20319;-76
2023/07/23 01:44:13;;;;;;;5.63;2.80;;;17.20;99.90;;;;;;4199676;28;20207;-77
2023/07/23 01:46:15;;;;;;;6.33;3.17;;;17.20;99.90;;;;;;4205932;28;20231;-77
2023/07/23 01:48:17;;;;;;;8.60;3.20;;;17.20;99.90;;;;;;4203278;28;20298;-76
2023/07/23 01:50:19;;;;;;;5.23;2.83;;;17.20;99.90;;;;;;4211805;28;20568;-76
2023/07/23 01:52:20;;;;;;;3.60;3.10;;;17.20;99.90;;;;;;4203996;28;20222;-77
2023/07/23 01:54:23;;;;;;;5.63;3.20;;;17.20;99.90;;;;;;4204850;28;20239;-76
2023/07/23 01:56:26;;;;;;;5.50;2.93;;;17.20;99.90;;;;;;4205293;28;20661;-77
2023/07/23 01:58:28;;;;;;;4.50;2.90;;;17.20;99.90;;;;;;4205610;28;20234;-77
2023/07/23 02:00:30;;;;;;;6.73;3.20;;;17.20;99.90;;;;;;4205173;28;20223;-77
2023/07/23 02:02:30;;;;;;;5.07;3.00;;;17.20;99.90;;;;;;4211950;28;20207;-77
2023/07/23 02:04:32;;;;;;;5.17;2.97;;;17.30;99.90;;;;;;4206375;28;20312;-76
2023/07/23 02:06:36;;;;;;;6.70;3.17;;;17.30;99.90;;;;;;4206925;28;20256;-76
2023/07/23 02:08:38;;;;;;;4.37;3.10;;;17.20;99.90;;;;;;4210332;28;20581;-77
2023/07/23 02:10:39;;;;;;;7.77;3.10;;;17.20;99.90;;;;;;4208224;28;20249;-77
2023/07/23 02:12:42;;;;;;;4.80;2.90;;;17.30;99.90;;;;;;4202768;28;20247;-77
2023/07/23 02:14:44;;;;;;;4.93;3.10;;;17.30;99.90;;;;;;4205717;28;20243;-77
2023/07/23 02:16:46;;;;;;;5.57;3.03;;;17.30;99.90;;;;;;4203820;28;20245;-78
2023/07/23 02:18:48;;;;;;;4.00;2.73;;;17.30;99.90;;;;;;4206204;28;20247;-77
2023/07/23 02:20:51;;;;;;;5.73;3.23;;;17.30;99.90;;;;;;4207190;28;20301;-76
2023/07/23 02:22:52;;;;;;;5.07;3.00;;;17.30;99.90;;;;;;4208805;28;20231;-77
2023/07/23 02:24:54;;;;;;;4.23;2.73;;;17.30;99.90;;;;;;4202779;28;20206;-77
2023/07/23 02:26:56;;;;;;;4.23;2.87;;;17.30;99.90;;;;;;4206190;28;20216;-76
2023/07/23 02:28:59;;;;;;;5.67;2.90;;;17.20;99.90;;;;;;4204529;28;20321;-76
2023/07/23 02:31:01;;;;;;;5.87;3.30;;;17.20;99.90;;;;;;4202066;28;20211;-77
2023/07/23 02:33:03;;;;;;;5.30;2.83;;;17.20;99.90;;;;;;4206323;28;20259;-77
2023/07/23 02:35:06;;;;;;;5.33;3.20;;;17.20;99.90;;;;;;4207187;28;20207;-77
2023/07/23 02:37:08;;;;;;;4.73;2.97;;;17.20;99.90;;;;;;4209325;28;20318;-77
2023/07/23 02:39:09;;;;;;;4.60;3.13;;;17.20;99.90;;;;;;4206528;28;20311;-77
2023/07/23 02:41:11;;;;;;;4.53;2.90;;;17.20;99.90;;;;;;4203823;28;20248;-76
2023/07/23 02:43:12;;;;;;;4.97;2.97;;;17.20;99.90;;;;;;4204797;28;20212;-77
2023/07/23 02:45:16;;;;;;;4.47;2.77;;;17.20;99.90;;;;;;4204132;28;20230;-76
2023/07/23 02:47:17;;;;;;;3.70;2.90;;;17.20;99.90;;;;;;4200901;28;20238;-77
2023/07/23 02:49:19;;;;;;;5.23;3.20;;;17.20;99.90;;;;;;4207617;28;20754;-77
2023/07/23 02:51:21;;;;;;;4.60;2.97;;;17.20;99.90;;;;;;4206016;28;20968;-76
2023/07/23 02:53:26;;;;;;;5.13;3.20;;;17.20;99.90;;;;;;4212649;28;20237;-77
2023/07/23 02:55:27;;;;;;;4.87;3.00;;;17.20;99.90;;;;;;4213503;28;20238;-77
2023/07/23 02:57:29;;;;;;;6.20;3.00;;;17.20;99.90;;;;;;4211576;28;20301;-77
2023/07/23 02:59:31;;;;;;;6.03;3.23;;;17.20;99.90;;;;;;4213273;28;20244;-77
2023/07/23 03:01:36;;;;;;;5.57;3.13;;;17.20;99.90;;;;;;4216323;28;20214;-76
2023/07/23 03:03:37;;;;;;;5.17;3.07;;;17.20;99.90;;;;;;4212563;28;20687;-77
2023/07/23 03:05:39;;;;;;;5.43;2.97;;;17.20;99.90;;;;;;4220011;28;20216;-77
2023/07/23 03:07:41;;;;;;;5.73;3.33;;;17.20;99.90;;;;;;4220801;28;20198;-75
2023/07/23 03:09:42;;;;;;;5.47;3.20;;;17.20;99.90;;;;;;4221608;28;20220;-76
2023/07/23 03:11:44;;;;;;;6.63;3.07;;;17.20;99.90;;;;;;4219093;28;20665;-76
2023/07/23 03:13:46;;;;;;;7.37;3.53;;;17.10;99.90;;;;;;4219734;28;20228;-76
2023/07/23 03:15:48;;;;;;;4.40;2.97;;;17.10;99.90;;;;;;4218288;28;20305;-77
2023/07/23 03:17:52;;;;;;;4.97;3.30;;;17.10;99.90;;;;;;4213339;28;20240;-76
2023/07/23 03:19:54;;;;;;;5.10;3.33;;;17.10;99.90;;;;;;4209306;28;20198;-77
2023/07/23 03:21:54;;;;;;;4.23;3.17;;;17.10;99.90;;;;;;4211990;28;20230;-76
2023/07/23 03:23:56;;;;;;;5.97;3.23;;;17.10;99.90;;;;;;4211633;28;20188;-77
2023/07/23 03:25:58;;;;;;;5.13;2.80;;;17.00;99.90;;;;;;4212578;28;20228;-77
2023/07/23 03:28:00;;;;;;;9.57;2.90;;;17.00;99.90;;;;;;4214305;28;20226;-77
2023/07/23 03:30:02;;;;;;;4.90;3.20;;;17.00;99.90;;;;;;4211639;28;20230;-77
2023/07/23 03:32:06;;;;;;;5.60;3.50;;;17.00;99.90;;;;;;4209188;28;20258;-76
2023/07/23 03:34:09;;;;;;;5.60;3.20;;;17.00;99.90;;;;;;4204963;28;20317;-77
2023/07/23 03:36:11;;;;;;;4.47;3.23;;;17.00;99.90;;;;;;4203288;28;20679;-76
2023/07/23 03:38:13;;;;;;;4.83;2.97;;;17.00;99.90;;;;;;4204172;28;20706;-76
2023/07/23 03:40:15;;;;;;;7.33;3.23;;;17.00;99.90;;;;;;4204321;28;20249;-77
2023/07/23 03:42:17;;;;;;;6.53;3.30;;;17.00;99.90;;;;;;4203487;28;20199;-77
2023/07/23 03:44:19;;;;;;;5.07;3.10;;;17.00;99.90;;;;;;4204726;28;20617;-77
2023/07/23 03:46:21;;;;;;;5.23;2.90;;;17.00;99.90;;;;;;4201757;28;20590;-76
2023/07/23 03:48:23;;;;;;;5.50;3.67;;;17.00;99.90;;;;;;4207427;28;20301;-77
2023/07/23 03:50:27;;;;;;;5.83;3.50;;;16.90;99.90;;;;;;4195533;28;20214;-76
2023/07/23 03:52:29;;;;;;;4.70;3.47;;;16.90;99.90;;;;;;4202861;28;20771;-76
2023/07/23 03:54:31;;;;;;;6.93;3.57;;;16.90;99.90;;;;;;4203680;28;20269;-76
2023/07/23 03:56:32;;;;;;;5.07;3.00;;;16.90;99.90;;;;;;4200494;28;20233;-76
2023/07/23 03:58:34;;;;;;;5.77;3.20;;;16.90;99.90;;;;;;4209591;28;20581;-77
2023/07/23 04:00:38;;;;;;;4.63;3.10;;;16.90;99.90;;;;;;4208948;28;20209;-77
2023/07/23 04:02:41;;;;;;;4.77;3.43;;;17.00;99.90;;;;;;4210088;28;20213;-76
2023/07/23 04:04:43;;;;;;;3.63;2.90;;;16.90;99.90;;;;;;4209419;28;20210;-76
2023/07/23 04:06:46;;;;;;;5.57;3.60;;;16.90;99.90;;;;;;4199739;28;20226;-77
2023/07/23 04:08:48;;;;;;;6.50;3.20;;;16.80;99.90;;;;;;4202235;28;20302;-78
2023/07/23 04:10:50;;;;;;;8.03;3.77;;;16.80;99.90;;;;;;4202637;28;20563;-76
2023/07/23 04:12:51;;;;;;;6.43;3.50;;;16.70;99.90;;;;;;4200159;28;20326;-77
2023/07/23 04:14:53;;;;;;;5.53;3.30;;;16.70;99.90;;;;;;4202720;28;20630;-76
2023/07/23 04:16:56;;;;;;;5.47;3.37;;;16.70;99.90;;;;;;4202036;28;20317;-77
2023/07/23 04:18:57;;;;;;;5.30;3.50;;;16.70;99.90;;;;;;4198468;28;20561;-76
2023/07/23 04:20:59;;;;;;;5.77;3.60;;;16.70;99.90;;;;;;4204565;28;20210;-76
2023/07/23 04:23:03;;;;;;;6.97;3.23;;;16.70;99.90;;;;;;4202674;28;20232;-76
2023/07/23 04:25:05;;;;;;;5.53;3.20;;;16.70;99.90;;;;;;4202876;28;20208;-77
2023/07/23 04:27:07;;;;;;;4.57;3.00;;;16.70;99.90;;;;;;4201521;28;20722;-76
2023/07/23 04:29:09;;;;;;;4.63;3.33;;;16.70;99.90;;;;;;4204008;28;20213;-76
2023/07/23 04:31:11;;;;;;;6.37;3.40;;;16.70;99.90;;;;;;4200550;28;20221;-77
2023/07/23 04:33:12;;;;;;;4.53;3.20;;;16.70;99.90;;;;;;4205491;28;20210;-77
2023/07/23 04:35:14;;;;;;;7.50;3.30;;;16.70;99.90;;;;;;4206153;28;20628;-76
2023/07/23 04:37:16;;;;;;;6.13;3.53;;;16.80;99.90;;;;;;4199868;28;20230;-75
2023/07/23 04:39:20;;;;;;;4.37;2.80;;;16.80;99.90;;;;;;4206489;28;20202;-76
2023/07/23 04:41:22;;;;;;;4.00;3.07;;;16.80;99.90;;;;;;4201981;28;20253;-75
2023/07/23 04:43:23;;;;;;;3.93;2.80;;;16.80;99.90;;;;;;4207673;28;20236;-78
2023/07/23 04:45:25;;;;;;;4.77;3.00;;;16.90;99.90;;;;;;4206223;28;20649;-76
2023/07/23 04:47:27;;;;;;;7.23;3.63;;;16.90;99.90;;;;;;4208046;28;20242;-75
2023/07/23 04:49:29;;;;;;;4.80;3.30;;;16.90;99.90;;;;;;4207187;28;20659;-75
2023/07/23 04:51:31;;;;;;;4.37;3.10;;;16.90;99.90;;;;;;4211028;28;20697;-75
2023/07/23 04:53:33;;;;;;;3.90;3.20;;;17.00;99.90;;;;;;4214039;28;20254;-75
2023/07/23 04:55:36;;;;;;;4.40;2.80;;;17.00;99.90;;;;;;4218657;28;20581;-76
2023/07/23 04:57:39;;;;;;;4.67;3.10;;;17.00;99.90;;;;;;4202969;28;20243;-77
2023/07/23 04:59:40;;;;;;;4.50;3.20;;;17.10;99.90;;;;;;4209850;28;20265;-76
2023/07/23 05:01:42;;;;;;;5.20;3.50;;;17.10;99.90;;;;;;4204261;28;20282;-76
2023/07/23 05:03:44;;;;;;;4.97;3.27;;;17.10;99.90;;;;;;4205005;28;20666;-75
2023/07/23 05:05:48;;;;;;;4.73;3.23;;;17.10;99.90;;;;;;4202864;28;20311;-76
2023/07/23 05:07:50;;;;;;;6.67;3.57;;;17.20;99.90;;;;;;4210301;28;20207;-75
2023/07/23 05:09:52;;;;;;;4.10;3.00;;;17.20;99.90;;;;;;4208857;28;20218;-79
2023/07/23 05:11:54;;;;;;;4.23;3.10;;;17.30;99.90;;;;;;4213516;28;20327;-77
2023/07/23 05:13:56;;;;;;;4.00;2.97;;;17.30;99.90;;;;;;4219505;28;20254;-77
2023/07/23 05:15:58;;;;;;;4.77;3.20;;;17.40;99.90;;;;;;4218385;28;20303;-77
2023/07/23 05:18:00;;;;;;;6.80;3.60;;;17.40;99.90;;;;;;4218676;28;20230;-77
2023/07/23 05:20:05;;;;;;;4.17;3.20;;;17.40;99.90;;;;;;4209529;28;20243;-76
2023/07/23 05:22:07;;;;;;;4.30;2.93;;;17.40;99.90;;;;;;4204009;28;20215;-76
2023/07/23 05:24:09;;;;;;;5.03;3.03;;;17.40;99.90;;;;;;4202317;28;20980;-76
2023/07/23 05:26:11;;;;;;;3.87;2.83;;;17.40;99.90;;;;;;4209110;28;20735;-76
2023/07/23 05:28:13;;;;;;;5.77;3.10;;;17.50;99.90;;;;;;4209141;28;20805;-76
2023/07/23 05:30:16;;;;;;;4.27;3.40;;;17.50;99.90;;;;;;4211006;28;20760;-76
2023/07/23 05:32:17;;;;;;;4.70;3.20;;;17.50;99.90;;;;;;4209333;28;20237;-76
2023/07/23 05:34:19;;;;;;;5.30;3.30;;;17.60;99.90;;;;;;4204540;28;20222;-77
2023/07/23 05:36:21;;;;;;;6.13;3.37;;;17.60;99.90;;;;;;4201676;28;20882;-76
2023/07/23 05:38:23;;;;;;;4.90;3.40;;;17.60;99.90;;;;;;4205824;28;20634;-75
2023/07/23 05:40:24;;;;;;;6.07;3.77;;;17.60;99.90;;;;;;4205331;28;20247;-77
2023/07/23 05:42:26;;;;;;;5.20;3.50;;;17.70;99.90;;;;;;4206099;28;20540;-76
2023/07/23 05:44:29;;;;;;;4.53;3.23;;;17.80;99.90;;;;;;4205049;28;20683;-78
2023/07/23 05:46:31;;;;;;;5.13;3.40;;;17.80;99.90;;;;;;4206316;28;20812;-75
2023/07/23 05:48:33;;;;;;;4.17;3.10;;;17.90;99.90;;;;;;4207353;28;20700;-76
2023/07/23 05:50:34;;;;;;;5.47;3.10;;;18.00;99.90;;;;;;4203135;28;20242;-75
2023/07/23 05:52:36;;;;;;;4.87;3.50;;;18.00;99.90;;;;;;4206916;28;20216;-76
2023/07/23 05:54:37;;;;;;;5.67;3.67;;;18.00;99.90;;;;;;4204174;28;20666;-79
2023/07/23 05:56:39;;;;;;;5.37;3.40;;;18.00;99.90;;;;;;4203535;28;20225;-78
2023/07/23 05:58:41;;;;;;;4.53;2.90;;;18.10;99.90;;;;;;4200223;28;20240;-76
2023/07/23 06:00:44;;;;;;;5.47;3.23;;;18.10;99.90;;;;;;4206887;28;20248;-78
2023/07/23 06:02:46;;;;;;;4.93;3.33;;;18.20;99.90;;;;;;4206124;28;20234;-77
2023/07/23 06:04:48;;;;;;;5.17;3.53;;;18.20;99.90;;;;;;4206405;28;20200;-77
2023/07/23 06:06:51;;;;;;;6.10;3.30;;;18.20;99.90;;;;;;4210617;28;20609;-77
2023/07/23 06:08:53;;;;;;;4.60;3.47;;;18.30;99.90;;;;;;4207093;28;20615;-76
2023/07/23 06:10:55;;;;;;;4.40;2.90;;;18.30;99.90;;;;;;4204924;28;20607;-78
2023/07/23 06:12:56;;;;;;;5.53;3.40;;;18.40;99.90;;;;;;4204388;28;20217;-77
2023/07/23 06:14:58;;;;;;;6.73;3.70;;;18.40;99.90;;;;;;4203147;28;20220;-79
2023/07/23 06:17:01;;;;;;;6.27;3.30;;;18.50;99.90;;;;;;4203196;28;20252;-78
2023/07/23 06:19:03;;;;;;;4.50;3.23;;;18.50;99.90;;;;;;4209013;28;20219;-78
2023/07/23 06:21:05;;;;;;;6.07;3.60;;;18.60;99.90;;;;;;4204194;28;20215;-79
2023/07/23 06:23:07;;;;;;;4.83;3.10;;;18.60;99.90;;;;;;4206121;28;20231;-78
2023/07/23 06:25:10;;;;;;;4.33;3.27;;;18.70;99.90;;;;;;4206294;28;20204;-78
2023/07/23 06:27:10;;;;;;;4.27;3.20;;;18.70;99.90;;;;;;4209035;28;20327;-78
2023/07/23 06:29:12;;;;;;;5.50;3.63;;;18.80;99.90;;;;;;4208130;28;20201;-79
2023/07/23 06:31:14;;;;;;;5.53;3.60;;;18.80;99.90;;;;;;4207916;28;20300;-76
2023/07/23 06:33:18;;;;;;;5.70;3.93;;;18.90;99.90;;;;;;4205253;28;20232;-79
2023/07/23 06:35:20;;;;;;;5.93;3.20;;;18.90;99.90;;;;;;4198273;28;20229;-79
2023/07/23 06:37:21;;;;;;;4.63;3.37;;;18.90;99.90;;;;;;4205209;28;20636;-79
2023/07/23 06:39:23;;;;;;;4.53;2.93;;;18.90;99.90;;;;;;4205028;28;20626;-77
2023/07/23 06:41:27;;;;;;;4.30;3.03;;;19.00;99.90;;;;;;4208150;28;20300;-76
2023/07/23 06:43:29;;;;;;;5.70;3.33;;;19.00;99.90;;;;;;4201985;28;20220;-77
2023/07/23 06:45:31;;;;;;;5.13;3.37;;;19.00;99.90;;;;;;4206570;28;20236;-77
2023/07/23 06:47:32;;;;;;;4.50;3.20;;;19.00;99.90;;;;;;4205337;28;20213;-77
2023/07/23 06:49:35;;;;;;;6.07;3.30;;;19.10;99.90;;;;;;4204344;28;20697;-79
2023/07/23 06:51:37;;;;;;;4.80;3.60;;;19.10;99.90;;;;;;4212005;28;20277;-77
2023/07/23 06:53:38;;;;;;;6.40;4.23;;;19.20;99.90;;;;;;4207490;28;20229;-80
2023/07/23 06:55:58;;;;;;;6.37;4.10;;;19.30;99.90;;;;;;4210701;28;20613;-78
2023/07/23 06:58:00;;;;;;;5.20;3.27;;;19.40;99.90;;;;;;4204931;28;20443;-77
2023/07/23 07:00:03;;;;;;;9.13;3.73;;;19.40;99.90;;;;;;4211689;28;20617;-78
2023/07/23 07:02:07;;;;;;;7.33;3.97;;;19.40;99.90;;;;;;4210488;28;20315;-76
2023/07/23 07:04:09;;;;;;;6.83;4.20;;;19.40;99.90;;;;;;4206248;28;20309;-79
2023/07/23 07:06:12;;;;;;;7.70;4.20;;;19.50;99.90;;;;;;4203096;28;20230;-80
2023/07/23 07:08:13;;;;;;;5.10;3.27;;;19.50;99.90;;;;;;4211021;28;20248;-78
2023/07/23 07:10:15;;;;;;;4.27;3.10;;;19.60;99.90;;;;;;4210066;28;20206;-78
2023/07/23 07:12:17;;;;;;;6.00;3.17;;;19.70;99.90;;;;;;4209070;28;20212;-77
2023/07/23 07:14:19;;;;;;;4.43;2.97;;;19.80;99.90;;;;;;4205458;28;20756;-76
2023/07/23 07:16:21;;;;;;;5.27;2.87;;;19.90;99.90;;;;;;4205751;28;20335;-78
2023/07/23 07:18:23;;;;;;;5.20;3.17;;;20.00;99.90;;;;;;4207699;28;20236;-77
2023/07/23 07:20:25;;;;;;;4.77;2.80;;;20.10;99.90;;;;;;4204226;28;20209;-78
2023/07/23 07:22:28;;;;;;;6.00;3.17;;;20.20;99.90;;;;;;4201682;28;20277;-77
2023/07/23 07:24:30;;;;;;;5.37;2.83;;;20.20;99.90;;;;;;4207286;28;20237;-78
2023/07/23 07:26:32;;;;;;;6.67;2.80;;;20.30;99.90;;;;;;4204964;28;20230;-77
2023/07/23 07:28:34;;;;;;;6.93;3.00;;;20.30;99.90;;;;;;4208039;28;20733;-77
2023/07/23 07:30:39;;;;;;;5.87;3.00;;;20.20;99.90;;;;;;4209891;28;20215;-77
2023/07/23 07:32:41;;;;;;;6.13;2.93;;;20.30;99.90;;;;;;4209584;28;20701;-78
2023/07/23 07:34:43;;;;;;;5.47;3.10;;;20.30;99.90;;;;;;4213729;28;20225;-80
2023/07/23 07:36:45;;;;;;;5.70;3.00;;;20.30;99.90;;;;;;4212409;28;20306;-79
2023/07/23 07:38:48;;;;;;;4.37;2.97;;;20.30;99.90;;;;;;4207926;28;20220;-79
2023/07/23 07:40:50;;;;;;;4.87;2.60;;;20.30;99.90;;;;;;4211440;28;20471;-79
2023/07/23 07:42:52;;;;;;;4.03;2.80;;;20.40;99.90;;;;;;4215156;28;20334;-83
2023/07/23 07:44:54;;;;;;;5.43;2.83;;;20.40;99.90;;;;;;4223511;28;20214;-83
2023/07/23 07:46:57;;;;;;;9.63;3.10;;;20.50;99.90;;;;;;4214413;28;20301;-82
2023/07/23 07:48:59;;;;;;;5.30;2.87;;;20.60;99.90;;;;;;4215875;28;20209;-83
2023/07/23 07:51:03;;;;;;;5.70;3.20;;;20.60;99.90;;;;;;4219570;28;20217;-82
2023/07/23 07:53:05;;;;;;;2.90;2.30;;;20.70;99.90;;;;;;4222815;28;20300;-82
2023/07/23 07:55:09;;;;;;;6.33;3.10;;;20.70;99.90;;;;;;4216835;28;20228;-79
2023/07/23 07:57:11;;;;;;;4.87;3.07;;;20.80;99.90;;;;;;4206208;28;20639;-80
2023/07/23 07:59:14;;;;;;;4.70;2.93;;;20.90;99.90;;;;;;4209864;28;20274;-78
2023/07/23 08:01:16;;;;;;;7.00;3.30;;;21.00;99.90;;;;;;4206264;28;20308;-76
2023/07/23 08:03:18;;;;;;;8.20;3.70;;;21.00;99.90;;;;;;4206620;28;20220;-77
2023/07/23 08:05:22;;;;;;;4.10;3.07;;;21.10;99.90;;;;;;4207169;28;20625;-79
2023/07/23 08:07:25;;;;;;;5.83;3.30;;;21.20;99.90;;;;;;4212786;28;20232;-78
2023/07/23 08:09:30;;;;;;;3.73;2.93;;;21.30;99.90;;;;;;4211017;28;20635;-79
2023/07/23 08:11:35;;;;;;;6.13;3.50;;;21.40;99.90;;;;;;4209729;28;20611;-78
2023/07/23 08:13:38;;;;;;;5.53;2.90;;;21.50;99.90;;;;;;4204151;28;20211;-78
2023/07/23 08:15:39;;;;;;;5.80;3.20;;;21.70;99.90;;;;;;4208968;28;20316;-78
2023/07/23 08:17:42;;;;;;;6.80;2.90;;;21.90;99.90;;;;;;4207390;28;20210;-78
2023/07/23 08:19:45;;;;;;;4.47;2.70;;;22.10;99.90;;;;;;4209325;28;20205;-79
2023/07/23 08:21:47;;;;;;;5.20;3.10;;;22.40;99.90;;;;;;4208640;28;20216;-78
2023/07/23 08:23:49;;;;;;;4.93;2.77;;;22.50;99.90;;;;;;4206969;28;20228;-78
2023/07/23 08:25:53;;;;;;;6.07;2.80;;;22.70;99.90;;;;;;4204135;28;21369;-78
2023/07/23 08:28:00;;;;;;;7.20;2.90;;;22.90;99.90;;;;;;4212582;28;20299;-78
2023/07/23 08:30:03;;;;;;;5.47;3.20;;;23.10;99.90;;;;;;4211450;28;20201;-79
2023/07/23 08:32:06;;;;;;;5.93;2.93;;;23.20;99.90;;;;;;4210107;28;20863;-83
2023/07/23 08:34:08;;;;;;;4.37;2.80;;;23.40;99.90;;;;;;4215585;28;20254;-83
2023/07/23 08:36:11;;;;;;;4.50;3.00;;;23.60;99.90;;;;;;4207929;28;21859;-82
2023/07/23 08:38:13;;;;;;;4.93;2.90;;;23.80;99.90;;;;;;4218733;28;20292;-79
2023/07/23 08:40:15;;;;;;;4.83;2.80;;;24.00;99.90;;;;;;4208111;28;20248;-81
2023/07/23 08:43:05;;;;;;;5.43;2.70;;;24.20;75.80;;;;;;4216248;28;20267;-80
2023/07/23 08:45:37;;;;;;;4.10;2.80;;;24.40;74.70;;;;;;4202829;28;20213;-81
2023/07/23 08:47:39;;;;;;;3.93;2.43;;;24.60;65.30;;;;;;4208521;28;20205;-81
2023/07/23 08:49:42;;;;;;;3.77;2.50;;;24.70;67.00;;;;;;4210169;28;20273;-79
2023/07/23 08:51:45;;;;;;;6.50;3.00;;;24.80;63.60;;;;;;4210325;28;20644;-81
2023/07/23 08:53:49;;;;;;;5.97;2.47;;;25.00;62.10;;;;;;4215033;28;20234;-81
2023/07/23 08:55:51;;;;;;;5.90;2.80;;;25.10;66.00;;;;;;4209136;28;20685;-80
2023/07/23 08:57:54;;;;;;;3.37;2.40;;;25.30;59.30;;;;;;4211131;28;20874;-81
2023/07/23 08:59:58;;;;;;;8.87;2.53;;;25.40;60.00;;;;;;4207529;28;20301;-82
2023/07/23 09:02:02;;;;;;;5.80;2.70;;;25.40;57.60;;;;;;4214014;28;20240;-82
2023/07/23 09:04:06;;;;;;;5.80;2.43;;;25.50;58.20;;;;;;4207410;28;20209;-81
2023/07/23 09:06:08;;;;;;;4.50;2.33;;;25.40;55.90;;;;;;4208111;28;20853;-80
2023/07/23 09:08:10;;;;;;;4.50;2.73;;;25.40;55.40;;;;;;4208193;28;20197;-78
2023/07/23 09:10:12;;;;;;;5.50;2.67;;;25.40;57.10;;;;;;4201760;28;20201;-78
2023/07/23 09:12:14;;;;;;;5.37;2.60;;;25.40;56.90;;;;;;4209029;28;20328;-77
2023/07/23 09:14:17;;;;;;;4.27;2.60;;;25.50;54.00;;;;;;4203312;28;20209;-76
2023/07/23 09:16:23;;;;;;;9.50;2.63;;;25.60;55.10;;;;;;4211438;28;20282;-80
2023/07/23 09:18:27;;;;;;;3.97;2.40;;;25.70;53.50;;;;;;4212159;28;20204;-79
2023/07/23 09:20:29;;;;;;;5.97;2.60;;;25.70;55.10;;;;;;4205374;28;20217;-79
2023/07/23 09:22:32;;;;;;;5.70;2.50;;;25.80;54.30;;;;;;4208540;28;20723;-80
2023/07/23 09:24:34;;;;;;;4.40;3.00;;;25.70;55.00;;;;;;4209581;28;20255;-80
2023/07/23 09:26:36;;;;;;;7.87;2.57;;;25.70;54.60;;;;;;4210556;28;20289;-80
2023/07/23 09:28:38;;;;;;;3.63;2.17;;;25.70;51.70;;;;;;4215199;28;20659;-80
2023/07/23 09:30:45;;;;;;;5.50;2.50;;;25.70;53.40;;;;;;4210773;28;20216;-80
2023/07/23 09:32:57;;;;;;;4.00;2.13;;;25.70;51.40;;;;;;4210550;28;20609;-79
2023/07/23 09:35:02;;;;;;;5.50;2.87;;;25.80;52.30;;;;;;4210806;28;20259;-80
2023/07/23 09:37:11;;;;;;;3.13;2.43;;;25.90;49.70;;;;;;4211449;28;20303;-80
2023/07/23 09:39:14;;;;;;;5.93;2.30;;;25.90;50.50;;;;;;4209333;28;20209;-76
2023/07/23 09:41:16;;;;;;;4.83;2.73;;;25.90;51.40;;;;;;4209652;28;20213;-78
2023/07/23 09:43:18;;;;;;;3.90;2.40;;;26.10;51.30;;;;;;4214174;28;20201;-79
2023/07/23 09:45:25;;;;;;;3.40;2.30;;;26.10;50.30;;;;;;4205250;28;20241;-81
2023/07/23 09:47:29;;;;;;;7.30;2.50;;;26.20;51.70;;;;;;4209463;28;20316;-79
2023/07/23 09:49:31;;;;;;;4.13;2.23;;;26.30;48.40;;;;;;4209754;28;20284;-77
2023/07/23 09:51:37;;;;;;;5.03;2.40;;;26.40;47.60;;;;;;4211734;28;20273;-80
2023/07/23 09:53:41;;;;;;;3.87;2.47;;;26.30;47.80;;;;;;4206539;28;20300;-79
2023/07/23 09:55:45;;;;;;;3.50;2.40;;;26.30;47.40;;;;;;4204796;28;20240;-79
2023/07/23 09:57:49;;;;;;;6.57;2.77;;;26.30;47.60;;;;;;4208868;28;20218;-81
2023/07/23 09:59:52;;;;;;;4.03;2.50;;;26.40;48.10;;;;;;4208396;28;20274;-80
2023/07/23 10:01:55;;;;;;;3.33;2.30;;;26.40;48.10;;;;;;4209531;28;20205;-79
2023/07/23 10:03:59;;;;;;;3.43;2.33;;;26.50;48.90;;;;;;4205245;28;20745;-79
2023/07/23 10:06:00;;;;;;;2.87;2.10;;;26.60;49.30;;;;;;4203754;28;20742;-79
2023/07/23 10:08:04;;;;;;;3.50;2.07;;;26.70;48.40;;;;;;4207478;28;20208;-80
2023/07/23 10:10:07;;;;;;;2.77;2.30;;;26.80;46.40;;;;;;4207618;28;20328;-80
2023/07/23 10:12:09;;;;;;;3.30;1.80;;;26.90;44.10;;;;;;4205739;28;20766;-80
2023/07/23 10:14:11;;;;;;;3.67;1.93;;;27.00;44.70;;;;;;4207322;28;20209;-79
2023/07/23 10:16:19;;;;;;;4.77;2.10;;;27.00;41.80;;;;;;4202082;28;20257;-79
2023/07/23 10:18:24;;;;;;;3.90;1.80;;;27.10;41.70;;;;;;4207918;28;20304;-80
2023/07/23 10:20:29;;;;;;;5.27;2.00;;;27.10;42.10;;;;;;4205526;28;20296;-79
2023/07/23 10:22:33;;;;;;;4.13;2.37;;;27.20;42.00;;;;;;4202806;28;20306;-79
2023/07/23 10:24:40;;;;;;;4.17;2.23;;;27.30;43.90;;;;;;4208538;28;20217;-80
2023/07/23 10:26:44;;;;;;;3.77;2.23;;;27.30;42.20;;;;;;4212555;28;20226;-79
2023/07/23 10:28:46;;;;;;;4.47;2.00;;;27.40;41.70;;;;;;4211828;28;20209;-79
2023/07/23 10:30:48;;;;;;;2.73;2.00;;;27.40;41.10;;;;;;4209113;28;20209;-79
2023/07/23 10:33:29;;;;;;;6.73;2.10;;;27.50;40.10;;;;;;4208054;28;20225;-79
2023/07/23 10:35:59;;;;;;;4.57;2.20;;;27.50;39.40;;;;;;4208952;28;20569;-80
2023/07/23 10:38:20;;;;;;;4.87;2.20;;;27.40;41.80;;;;;;4207532;28;20240;-79
2023/07/23 10:40:45;;;;;;;4.73;2.40;;;27.40;43.00;;;;;;4211553;28;20239;-81